Terminal Aerodrome Forecast
Issued by NWS Boston, MA

Current Version | Previous Version | Text Only | Print | Product List | Glossary On
Versions: 1 2 3 4 5 6 7 8 9 10 11 12 13 14 15 16 17 18 19 20 21 22 23 24 25 26 27 28 29 30 31 32 33 34 35 36 37 38 39 40 41 42 43 44 45 46 47 48
739
FTUS41 KBOX 161124
TAFBOS
TAF
KBOS 161124Z 1612/1718 34005KT P6SM BKN030
     FM161600 00000KT P6SM BKN035
     FM162000 18005KT P6SM OVC035
     FM170700 16004KT 2SM -SN OVC010
     FM171000 04005KT 1SM -SN OVC008
     FM171200 04005KT 1/2SM SN OVC003
     FM171700 03007KT 1 1/2SM -SNRA OVC003=

USA.gov is the U.S. government's official web portal to all federal, state and local government web resources and services.